Time;durP1;ratioP1;P1;durP2;ratioP2;P2;SDS_P1;SDS_P2;PMS_P1;PMS_P2;Temp;Humidity;BMP_temperature;BMP_pressure;BME280_temperature;BME280_humidity;BME280_pressure;Samples;Min_cycle;Max_cycle;Signal;HPM_P1;HPM_P2
2022/05/10 00:00:57;;;;;;;3.73;1.80;;;10.60;76.10;;;;;;5051524;28;20545;-61
2022/05/10 00:03:31;;;;;;;4.53;2.10;;;10.60;76.40;;;;;;5051555;28;20652;-61
2022/05/10 00:05:58;;;;;;;3.67;2.23;;;10.60;76.30;;;;;;5051290;28;20239;-61
2022/05/10 00:08:24;;;;;;;3.50;1.93;;;10.40;76.60;;;;;;5051155;28;20196;-60
2022/05/10 00:10:51;;;;;;;3.63;1.90;;;10.30;76.80;;;;;;5051667;28;20201;-60
2022/05/10 00:13:19;;;;;;;3.87;1.90;;;10.30;77.30;;;;;;5051846;28;20202;-60
2022/05/10 00:15:47;;;;;;;2.70;1.93;;;10.10;77.80;;;;;;5051258;28;20586;-60
2022/05/10 00:18:16;;;;;;;2.20;1.80;;;10.00;78.40;;;;;;5051447;28;20237;-61
2022/05/10 00:20:44;;;;;;;3.07;1.97;;;10.00;78.70;;;;;;5051210;28;20206;-59
2022/05/10 00:23:11;;;;;;;4.13;2.23;;;9.90;79.60;;;;;;5052988;28;20660;-60
2022/05/10 00:25:38;;;;;;;3.97;2.10;;;9.90;80.00;;;;;;5055022;28;20225;-61
2022/05/10 00:28:06;;;;;;;3.07;2.30;;;9.80;80.60;;;;;;5054871;28;20284;-61
2022/05/10 00:30:33;;;;;;;4.73;2.10;;;9.70;80.40;;;;;;5055149;28;20205;-60
2022/05/10 00:33:01;;;;;;;4.37;2.33;;;9.70;80.80;;;;;;5054711;28;20205;-60
2022/05/10 00:35:32;;;;;;;6.03;2.83;;;9.70;80.70;;;;;;5055040;28;20216;-61
2022/05/10 00:38:01;;;;;;;6.30;3.30;;;9.70;80.90;;;;;;5055180;28;20620;-61
2022/05/10 00:40:31;;;;;;;8.23;4.37;;;9.60;82.30;;;;;;5054883;28;20212;-61
2022/05/10 00:43:03;;;;;;;11.90;4.90;;;9.60;83.50;;;;;;5054978;28;20686;-60
2022/05/10 00:45:38;;;;;;;14.93;5.00;;;9.50;84.60;;;;;;5054972;28;20724;-61
2022/05/10 00:48:12;;;;;;;18.60;6.90;;;9.40;86.10;;;;;;5055137;28;20212;-61
2022/05/10 00:50:44;;;;;;;13.73;5.73;;;9.40;87.00;;;;;;5054719;28;20651;-60
2022/05/10 00:53:18;;;;;;;15.40;6.23;;;9.40;88.20;;;;;;5054459;28;20193;-60
2022/05/10 00:55:51;;;;;;;14.67;5.47;;;9.30;88.80;;;;;;5054599;28;20244;-60
2022/05/10 00:58:32;;;;;;;12.07;5.00;;;9.30;89.30;;;;;;5054692;28;20547;-62
2022/05/10 01:01:01;;;;;;;11.30;5.50;;;9.10;90.00;;;;;;5054432;28;20186;-61
2022/05/10 01:03:32;;;;;;;12.60;5.50;;;9.00;90.20;;;;;;5054510;28;20209;-61
2022/05/10 01:06:04;;;;;;;17.13;6.23;;;8.90;90.50;;;;;;5054231;28;20233;-60
2022/05/10 01:08:38;;;;;;;25.27;6.70;;;8.80;90.80;;;;;;5054322;28;20204;-60
2022/05/10 01:11:10;;;;;;;14.57;5.93;;;8.80;91.00;;;;;;5054513;28;20659;-60
2022/05/10 01:13:42;;;;;;;14.57;6.70;;;8.80;91.00;;;;;;5054295;28;20244;-59
2022/05/10 01:16:12;;;;;;;16.87;6.80;;;8.80;91.20;;;;;;5054248;28;20231;-61
2022/05/10 01:18:41;;;;;;;13.43;6.60;;;8.80;91.30;;;;;;5054045;28;20651;-60
2022/05/10 01:21:24;;;;;;;16.00;7.00;;;8.70;91.30;;;;;;5054164;28;20205;-60
2022/05/10 01:24:22;;;;;;;17.70;7.10;;;8.70;91.60;;;;;;5054256;28;20542;-61
2022/05/10 01:27:05;;;;;;;14.47;7.00;;;8.60;91.60;;;;;;5053790;28;20229;-62
2022/05/10 01:29:37;;;;;;;17.40;7.17;;;8.60;91.60;;;;;;5053950;28;20555;-61
2022/05/10 01:34:58;;;;;;;15.30;6.63;;;8.60;91.90;;;;;;5053290;28;20176;-62
2022/05/10 01:37:29;;;;;;;14.57;6.53;;;8.50;92.10;;;;;;5053793;28;20200;-61
2022/05/10 01:40:00;;;;;;;15.73;6.53;;;8.50;92.10;;;;;;5053731;28;20544;-61
2022/05/10 01:42:33;;;;;;;14.50;6.73;;;8.50;92.30;;;;;;5053609;28;20212;-61
2022/05/10 01:45:05;;;;;;;16.67;6.40;;;8.40;92.40;;;;;;5053832;28;20551;-62
2022/05/10 01:47:37;;;;;;;15.43;6.40;;;8.30;92.40;;;;;;5053757;28;20228;-60
2022/05/10 01:50:08;;;;;;;13.70;6.07;;;8.40;92.40;;;;;;5053716;28;20189;-61
2022/05/10 01:52:43;;;;;;;20.03;7.90;;;8.30;92.70;;;;;;5053353;28;20224;-60
2022/05/10 01:55:26;;;;;;;23.70;9.43;;;8.20;92.90;;;;;;5053723;28;20562;-62
2022/05/10 01:57:54;;;;;;;23.23;9.90;;;8.10;93.10;;;;;;5053473;28;20644;-61
2022/05/10 02:00:25;;;;;;;18.03;9.63;;;8.00;93.20;;;;;;5053014;28;20216;-61
2022/05/10 02:02:55;;;;;;;20.00;9.63;;;8.00;93.20;;;;;;5053593;28;20263;-61
2022/05/10 02:05:29;;;;;;;26.77;10.60;;;7.90;93.70;;;;;;5052990;28;20264;-61
2022/05/10 02:08:02;;;;;;;25.07;10.00;;;7.80;94.10;;;;;;5052951;28;20186;-60
2022/05/10 02:10:35;;;;;;;26.30;10.00;;;7.70;94.50;;;;;;5053215;28;20194;-62
2022/05/10 02:13:06;;;;;;;24.60;10.33;;;7.70;94.40;;;;;;5053139;28;20193;-60
2022/05/10 02:15:40;;;;;;;23.97;11.33;;;7.70;94.40;;;;;;5052985;28;20714;-61
2022/05/10 02:18:15;;;;;;;22.83;11.07;;;7.70;94.40;;;;;;5053231;28;20193;-62
2022/05/10 02:20:47;;;;;;;28.00;11.83;;;7.80;94.50;;;;;;5052611;28;20203;-60
2022/05/10 02:23:28;;;;;;;29.77;12.70;;;7.70;94.90;;;;;;5053031;28;20216;-61
2022/05/10 02:26:01;;;;;;;28.43;12.33;;;7.70;95.10;;;;;;5052787;28;20214;-60
2022/05/10 02:28:37;;;;;;;25.33;11.13;;;7.60;95.30;;;;;;5052877;28;20197;-61
2022/05/10 02:31:11;;;;;;;23.73;10.83;;;7.50;95.30;;;;;;5053024;28;20619;-61
2022/05/10 02:33:39;;;;;;;25.00;10.37;;;7.50;95.50;;;;;;5052522;28;20196;-61
2022/05/10 02:36:06;;;;;;;30.07;11.00;;;7.40;95.70;;;;;;5053005;28;20197;-59
2022/05/10 02:38:34;;;;;;;25.93;10.33;;;7.40;95.90;;;;;;5052790;28;20668;-62
2022/05/10 02:41:04;;;;;;;27.03;10.80;;;7.30;96.20;;;;;;5052891;28;20566;-61
2022/05/10 02:43:35;;;;;;;27.57;10.47;;;7.20;96.20;;;;;;5052790;28;20197;-60
2022/05/10 02:46:02;;;;;;;25.17;9.93;;;7.20;96.10;;;;;;5051892;28;20236;-60
2022/05/10 02:48:32;;;;;;;23.43;10.83;;;7.30;96.50;;;;;;5052810;28;20205;-61
2022/05/10 02:50:59;;;;;;;26.20;13.00;;;7.30;96.00;;;;;;5052551;28;20205;-60
2022/05/10 02:53:26;;;;;;;28.47;13.73;;;7.40;96.00;;;;;;5052434;28;20206;-61
2022/05/10 02:55:57;;;;;;;32.87;14.27;;;7.40;95.80;;;;;;5052194;28;20209;-60
2022/05/10 02:58:30;;;;;;;30.50;14.53;;;7.30;95.70;;;;;;5052071;28;20186;-61
2022/05/10 03:01:03;;;;;;;30.27;14.47;;;7.40;95.80;;;;;;5052531;28;20193;-61
2022/05/10 03:03:33;;;;;;;40.10;16.57;;;7.40;95.90;;;;;;5051960;28;20201;-61
2022/05/10 03:05:59;;;;;;;37.23;16.50;;;7.40;95.80;;;;;;5051927;28;20240;-61
2022/05/10 03:08:26;;;;;;;36.97;16.27;;;7.40;95.90;;;;;;5052222;28;20220;-61
2022/05/10 03:10:53;;;;;;;37.97;16.30;;;7.40;95.90;;;;;;5051991;28;20209;-61
2022/05/10 03:13:20;;;;;;;38.60;16.57;;;7.40;96.00;;;;;;5052126;28;20211;-61
2022/05/10 03:15:47;;;;;;;35.43;16.40;;;7.40;96.20;;;;;;5052006;28;20585;-61
2022/05/10 03:18:14;;;;;;;38.83;18.70;;;7.40;96.40;;;;;;5051633;28;20216;-61
2022/05/10 03:20:42;;;;;;;38.77;16.77;;;7.40;96.30;;;;;;5052012;28;20209;-61
2022/05/10 03:23:08;;;;;;;36.97;16.33;;;7.40;96.50;;;;;;5052094;28;20216;-60
2022/05/10 03:25:35;;;;;;;44.67;17.37;;;7.40;96.60;;;;;;5052070;28;20201;-62
2022/05/10 03:28:03;;;;;;;32.40;16.57;;;7.40;96.80;;;;;;5051935;28;20562;-61
2022/05/10 03:30:31;;;;;;;38.97;16.50;;;7.40;96.90;;;;;;5051771;28;20208;-60
2022/05/10 03:32:58;;;;;;;38.67;17.20;;;7.40;97.10;;;;;;5051573;28;20214;-61
2022/05/10 03:35:25;;;;;;;36.97;17.20;;;7.40;97.40;;;;;;5051389;28;20295;-61
2022/05/10 03:37:53;;;;;;;36.90;16.87;;;7.50;97.40;;;;;;5051608;28;20206;-61
2022/05/10 03:40:20;;;;;;;38.40;16.73;;;7.50;97.10;;;;;;5051367;28;20220;-60
2022/05/10 03:42:49;;;;;;;39.57;17.00;;;7.50;96.90;;;;;;5051853;28;20211;-61
2022/05/10 03:45:18;;;;;;;37.77;15.60;;;7.40;97.10;;;;;;5051650;28;20300;-62
2022/05/10 03:47:46;;;;;;;39.63;17.23;;;7.50;97.20;;;;;;5051673;28;20228;-61
2022/05/10 03:50:15;;;;;;;35.10;15.77;;;7.50;97.50;;;;;;5051622;28;20675;-61
2022/05/10 03:52:42;;;;;;;38.30;17.07;;;7.50;97.60;;;;;;5051297;28;20217;-61
2022/05/10 03:55:13;;;;;;;36.03;16.77;;;7.60;97.40;;;;;;5051338;28;20213;-60
2022/05/10 03:57:40;;;;;;;38.93;16.13;;;7.60;97.40;;;;;;5053870;28;20189;-61
2022/05/10 04:00:11;;;;;;;36.90;17.50;;;7.60;97.40;;;;;;5055505;28;20201;-62
2022/05/10 04:02:39;;;;;;;39.20;16.67;;;7.70;97.40;;;;;;5055509;28;20189;-61
2022/05/10 04:05:07;;;;;;;40.63;17.47;;;7.80;97.50;;;;;;5055601;28;20683;-61
2022/05/10 04:07:34;;;;;;;41.10;18.30;;;7.80;97.80;;;;;;5055108;28;20233;-60
2022/05/10 04:10:01;;;;;;;39.60;17.03;;;7.90;97.90;;;;;;5055516;28;20209;-61
2022/05/10 04:12:29;;;;;;;39.53;16.53;;;8.00;98.20;;;;;;5055093;28;20209;-60
2022/05/10 04:14:56;;;;;;;39.83;16.53;;;8.10;98.20;;;;;;5055269;28;20229;-62
2022/05/10 04:17:23;;;;;;;39.23;16.50;;;8.10;98.10;;;;;;5055262;28;20667;-61
2022/05/10 04:19:50;;;;;;;35.33;16.27;;;8.20;98.10;;;;;;5055390;28;20211;-60
2022/05/10 04:22:18;;;;;;;37.00;15.93;;;8.20;97.90;;;;;;5054881;28;20220;-61
2022/05/10 04:24:44;;;;;;;39.03;16.73;;;8.30;97.50;;;;;;5055315;28;20659;-62
2022/05/10 04:27:11;;;;;;;36.93;15.20;;;8.40;97.50;;;;;;5054901;28;20585;-61
2022/05/10 04:29:39;;;;;;;35.30;15.47;;;8.60;97.30;;;;;;5055157;28;20201;-61
2022/05/10 04:32:07;;;;;;;36.27;16.83;;;8.70;96.80;;;;;;5055023;28;20202;-61
2022/05/10 04:34:34;;;;;;;36.20;15.67;;;8.80;96.90;;;;;;5054880;28;20216;-61
2022/05/10 04:37:01;;;;;;;37.87;14.80;;;8.90;96.70;;;;;;5054836;28;20204;-62
2022/05/10 04:41:24;;;;;;;35.73;16.03;;;9.10;96.30;;;;;;5054825;28;20201;-61
2022/05/10 04:42:13;;;;;;;39.60;15.50;;;9.20;96.10;;;;;;5054407;28;20241;-62
2022/05/10 04:44:41;;;;;;;38.30;15.53;;;9.30;96.00;;;;;;5054836;28;20708;-63
2022/05/10 04:47:08;;;;;;;33.70;14.97;;;9.40;95.60;;;;;;5054425;28;20225;-61
2022/05/10 04:49:35;;;;;;;36.20;15.67;;;9.50;95.60;;;;;;5054916;28;20773;-61
2022/05/10 04:52:02;;;;;;;38.90;16.10;;;9.70;95.90;;;;;;5054595;28;20570;-62
2022/05/10 04:54:28;;;;;;;37.17;16.67;;;9.80;96.00;;;;;;5054791;28;20694;-63
2022/05/10 04:56:55;;;;;;;34.20;15.50;;;9.90;95.30;;;;;;5054705;28;20198;-62
2022/05/10 04:59:22;;;;;;;33.60;15.07;;;10.00;94.80;;;;;;5054558;28;20703;-63
2022/05/10 05:01:50;;;;;;;34.70;15.33;;;10.10;95.10;;;;;;5054532;28;20660;-62
2022/05/10 05:04:17;;;;;;;30.00;14.40;;;10.20;95.30;;;;;;5054427;28;20556;-60
2022/05/10 05:06:44;;;;;;;31.03;14.40;;;10.30;95.10;;;;;;5054025;28;20248;-61
2022/05/10 05:09:11;;;;;;;28.27;13.53;;;10.50;94.70;;;;;;5053438;28;20228;-63
2022/05/10 05:11:38;;;;;;;31.87;12.93;;;10.60;94.10;;;;;;5054425;28;20212;-64
2022/05/10 05:14:05;;;;;;;32.73;13.23;;;10.60;93.70;;;;;;5054345;28;20564;-62
2022/05/10 05:16:31;;;;;;;27.93;12.97;;;10.70;93.70;;;;;;5054397;28;20660;-61
2022/05/10 05:18:59;;;;;;;26.87;11.40;;;10.80;93.80;;;;;;5054260;28;20561;-62
2022/05/10 05:21:26;;;;;;;21.10;10.17;;;11.00;93.70;;;;;;5054181;28;20205;-62
2022/05/10 05:23:53;;;;;;;24.90;10.00;;;11.10;93.30;;;;;;5054013;28;20202;-61
2022/05/10 05:26:22;;;;;;;25.77;10.23;;;11.10;93.40;;;;;;5054023;28;20209;-60
2022/05/10 05:28:48;;;;;;;25.87;11.27;;;11.30;93.50;;;;;;5054130;28;20682;-61
2022/05/10 05:31:17;;;;;;;24.37;10.63;;;11.40;93.40;;;;;;5053958;28;20202;-61
2022/05/10 05:33:44;;;;;;;24.40;9.47;;;11.50;93.40;;;;;;5054134;28;20314;-61
2022/05/10 05:36:12;;;;;;;26.27;9.70;;;11.60;93.50;;;;;;5053854;28;20201;-61
2022/05/10 05:38:39;;;;;;;19.20;9.03;;;11.60;93.60;;;;;;5053855;28;20206;-61
2022/05/10 05:41:06;;;;;;;14.90;6.87;;;11.70;93.70;;;;;;5053727;28;20205;-61
2022/05/10 05:43:34;;;;;;;22.23;9.30;;;11.80;93.90;;;;;;5053804;28;20308;-61
2022/05/10 05:46:01;;;;;;;19.70;8.60;;;11.90;94.10;;;;;;5053753;28;20205;-61
2022/05/10 05:48:29;;;;;;;17.87;7.87;;;12.00;94.40;;;;;;5053637;28;20693;-61
2022/05/10 05:50:56;;;;;;;18.93;8.30;;;12.00;93.60;;;;;;5053482;28;20216;-61
2022/05/10 05:53:26;;;;;;;18.87;8.13;;;12.10;92.60;;;;;;5053626;28;20568;-61
2022/05/10 05:55:53;;;;;;;21.47;9.60;;;12.20;91.90;;;;;;5053591;28;20190;-62
2022/05/10 05:58:21;;;;;;;14.47;6.10;;;12.20;90.20;;;;;;5053581;28;20205;-60
2022/05/10 06:00:47;;;;;;;17.03;7.70;;;12.30;86.80;;;;;;5053462;28;20729;-60
2022/05/10 06:03:14;;;;;;;12.37;6.23;;;12.30;86.30;;;;;;5053534;28;20579;-61
2022/05/10 06:05:41;;;;;;;15.00;6.53;;;12.30;83.90;;;;;;5052984;28;20244;-61
2022/05/10 06:08:09;;;;;;;14.33;6.13;;;12.40;83.30;;;;;;5053365;28;20719;-61
2022/05/10 06:10:37;;;;;;;15.53;6.67;;;12.40;80.80;;;;;;5053322;28;20209;-60
2022/05/10 06:13:04;;;;;;;16.57;7.47;;;12.50;81.70;;;;;;5053147;28;20255;-62
2022/05/10 06:15:31;;;;;;;13.60;7.00;;;12.50;80.90;;;;;;5053210;28;20232;-61
2022/05/10 06:17:58;;;;;;;21.27;8.37;;;12.60;79.80;;;;;;5052903;28;20209;-61
2022/05/10 06:20:26;;;;;;;14.43;6.90;;;12.60;79.50;;;;;;5053045;28;20304;-61
2022/05/10 06:22:53;;;;;;;14.57;6.60;;;12.70;78.30;;;;;;5053011;28;20206;-61
2022/05/10 06:25:23;;;;;;;14.60;6.40;;;12.80;77.90;;;;;;5052998;28;20236;-61
2022/05/10 06:27:53;;;;;;;14.40;5.83;;;12.80;77.00;;;;;;5052387;28;20213;-61
2022/05/10 06:30:21;;;;;;;12.33;6.00;;;12.90;75.10;;;;;;5052900;28;20201;-61
2022/05/10 06:32:48;;;;;;;14.80;5.57;;;12.90;76.60;;;;;;5052890;28;20212;-63
2022/05/10 06:35:16;;;;;;;8.63;4.60;;;13.00;75.20;;;;;;5053006;28;20216;-61
2022/05/10 06:40:27;;;;;;;13.10;5.93;;;13.10;74.20;;;;;;5052831;28;20276;-61
2022/05/10 06:42:58;;;;;;;12.03;5.80;;;13.10;74.20;;;;;;5052885;28;20228;-62
2022/05/10 06:45:25;;;;;;;11.67;5.97;;;13.20;74.70;;;;;;5053015;28;20193;-61
2022/05/10 06:47:52;;;;;;;10.43;4.27;;;13.20;74.50;;;;;;5052574;28;20699;-62
2022/05/10 06:50:20;;;;;;;14.33;6.03;;;13.20;72.50;;;;;;5052833;28;20574;-61
2022/05/10 06:52:49;;;;;;;15.97;7.33;;;13.30;73.50;;;;;;5052617;28;20628;-62
2022/05/10 06:55:16;;;;;;;12.67;5.30;;;13.30;74.40;;;;;;5052839;28;20552;-60
2022/05/10 06:57:43;;;;;;;12.70;5.87;;;13.40;73.30;;;;;;5052605;28;20421;-62
2022/05/10 07:00:14;;;;;;;6.83;4.00;;;13.40;73.40;;;;;;5052618;28;20212;-61
2022/05/10 07:02:41;;;;;;;14.00;5.83;;;13.40;72.60;;;;;;5052369;28;20194;-62
2022/05/10 07:05:08;;;;;;;9.43;5.43;;;13.50;71.60;;;;;;5052350;28;20205;-60
2022/05/10 07:07:35;;;;;;;13.53;5.67;;;13.50;71.20;;;;;;5051744;28;20237;-62
2022/05/10 07:10:03;;;;;;;14.40;5.80;;;13.50;72.10;;;;;;5052140;28;20216;-61
2022/05/10 07:12:30;;;;;;;15.87;5.60;;;13.60;71.30;;;;;;5052161;28;20205;-60
2022/05/10 07:14:57;;;;;;;10.10;4.67;;;13.70;70.00;;;;;;5051625;28;20235;-61
2022/05/10 07:17:25;;;;;;;14.33;5.37;;;13.80;69.20;;;;;;5052316;28;20288;-62
2022/05/10 07:19:52;;;;;;;18.10;6.63;;;13.80;69.00;;;;;;5052184;28;20201;-62
2022/05/10 07:22:18;;;;;;;13.33;5.87;;;13.80;68.50;;;;;;5051851;28;20216;-61
2022/05/10 07:24:45;;;;;;;12.27;6.00;;;13.80;69.70;;;;;;5051882;28;20206;-63
2022/05/10 07:27:12;;;;;;;12.63;6.30;;;13.90;70.00;;;;;;5051994;28;20221;-61
2022/05/10 07:29:39;;;;;;;12.30;6.50;;;13.90;69.00;;;;;;5052031;28;20209;-60
2022/05/10 07:32:08;;;;;;;13.27;6.53;;;13.90;67.90;;;;;;5051629;28;20205;-61
2022/05/10 07:34:36;;;;;;;11.90;5.80;;;14.00;68.70;;;;;;5051587;28;20201;-62
2022/05/10 07:37:03;;;;;;;11.13;5.60;;;14.00;68.20;;;;;;5051946;28;20212;-62
2022/05/10 07:39:30;;;;;;;13.50;5.73;;;14.00;67.30;;;;;;5051499;28;20215;-59
2022/05/10 07:41:59;;;;;;;13.63;5.30;;;14.00;68.20;;;;;;5051752;28;20675;-60
2022/05/10 07:44:26;;;;;;;11.13;4.97;;;14.10;67.10;;;;;;5051881;28;20212;-62
2022/05/10 07:46:53;;;;;;;9.07;4.90;;;14.10;66.10;;;;;;5051575;28;20212;-60
2022/05/10 07:49:19;;;;;;;10.60;4.67;;;14.00;66.60;;;;;;5051740;28;20207;-61
2022/05/10 07:51:47;;;;;;;12.60;5.53;;;14.10;66.50;;;;;;5051431;28;20215;-61
2022/05/10 07:54:14;;;;;;;10.33;5.03;;;14.10;66.90;;;;;;5051761;28;20706;-61
2022/05/10 07:56:41;;;;;;;9.37;4.03;;;14.10;66.70;;;;;;5051571;28;20207;-62
2022/05/10 07:59:08;;;;;;;11.53;4.87;;;14.20;65.40;;;;;;5051576;28;20289;-62
2022/05/10 08:01:35;;;;;;;10.03;4.87;;;14.10;65.10;;;;;;5051279;28;20205;-62
2022/05/10 08:04:02;;;;;;;14.30;5.77;;;14.20;65.80;;;;;;5051630;28;20556;-61
2022/05/10 08:06:29;;;;;;;15.23;5.60;;;14.20;66.20;;;;;;5051209;28;20241;-64
2022/05/10 08:08:57;;;;;;;13.73;6.30;;;14.20;65.80;;;;;;5051690;28;20229;-62
2022/05/10 08:11:24;;;;;;;15.60;6.20;;;14.30;66.10;;;;;;5051592;28;20675;-60
2022/05/10 08:13:51;;;;;;;15.13;6.77;;;14.30;65.50;;;;;;5051385;28;20660;-61
2022/05/10 08:16:18;;;;;;;14.93;7.00;;;14.30;65.60;;;;;;5051570;28;20209;-62
2022/05/10 08:18:48;;;;;;;26.17;7.97;;;14.30;65.10;;;;;;5051423;28;20202;-60
2022/05/10 08:21:15;;;;;;;19.87;8.00;;;14.30;65.80;;;;;;5051186;28;20197;-60
2022/05/10 08:23:42;;;;;;;22.37;8.73;;;14.30;65.20;;;;;;5051021;28;20210;-61
2022/05/10 08:26:10;;;;;;;23.40;8.90;;;14.40;65.40;;;;;;5051693;28;20212;-62
2022/05/10 08:28:39;;;;;;;20.63;9.07;;;14.30;64.00;;;;;;5051169;28;20308;-62
2022/05/10 08:31:08;;;;;;;25.27;9.43;;;14.40;65.00;;;;;;5051412;28;20301;-63
2022/05/10 08:33:37;;;;;;;18.80;7.50;;;14.40;64.70;;;;;;5051087;28;20205;-62
2022/05/10 08:36:06;;;;;;;24.43;8.77;;;14.40;65.20;;;;;;5051354;28;20202;-62
2022/05/10 08:38:33;;;;;;;17.80;7.73;;;14.40;65.10;;;;;;5050941;28;20209;-61
2022/05/10 08:41:05;;;;;;;19.90;7.80;;;14.40;66.20;;;;;;5050956;28;20205;-62
2022/05/10 08:43:37;;;;;;;19.10;8.13;;;14.50;65.80;;;;;;5051705;28;20660;-60
2022/05/10 08:46:07;;;;;;;16.67;7.73;;;14.50;65.70;;;;;;5054906;28;20194;-61
2022/05/10 08:48:34;;;;;;;17.73;6.80;;;14.50;65.50;;;;;;5054711;28;20684;-62
2022/05/10 08:51:02;;;;;;;19.40;6.60;;;14.60;65.50;;;;;;5054813;28;20207;-61
2022/05/10 08:53:29;;;;;;;14.23;5.77;;;14.60;64.90;;;;;;5054560;28;20556;-62
2022/05/10 08:56:01;;;;;;;14.60;6.07;;;14.70;64.00;;;;;;5054404;28;20209;-65
2022/05/10 08:58:51;;;;;;;15.30;5.50;;;14.70;65.20;;;;;;5054570;28;20181;-61
2022/05/10 09:01:22;;;;;;;9.43;4.43;;;14.70;64.50;;;;;;5054638;28;20216;-60
2022/05/10 09:03:56;;;;;;;14.80;5.47;;;14.60;64.60;;;;;;5054346;28;20194;-60
2022/05/10 09:06:34;;;;;;;10.70;5.03;;;14.70;65.30;;;;;;5054231;28;20586;-63
2022/05/10 09:09:12;;;;;;;13.60;4.97;;;14.80;65.10;;;;;;5054511;28;20216;-61
2022/05/10 09:11:51;;;;;;;8.70;4.10;;;14.70;63.40;;;;;;5054411;28;20616;-62
2022/05/10 09:14:27;;;;;;;9.10;4.00;;;14.80;63.40;;;;;;5054406;28;20235;-62
2022/05/10 09:16:55;;;;;;;6.97;3.27;;;14.80;63.50;;;;;;5054424;28;20605;-63
2022/05/10 09:19:34;;;;;;;6.17;3.13;;;14.80;63.30;;;;;;5054167;28;20561;-61
2022/05/10 09:22:07;;;;;;;5.90;3.40;;;14.90;63.80;;;;;;5054420;28;20189;-62
2022/05/10 09:24:47;;;;;;;11.53;4.03;;;15.00;63.40;;;;;;5054215;28;20550;-62
2022/05/10 09:27:14;;;;;;;5.77;2.77;;;15.00;63.80;;;;;;5054257;28;20296;-62
2022/05/10 09:29:46;;;;;;;8.43;3.50;;;15.20;63.70;;;;;;5053917;28;20247;-61
2022/05/10 09:35:12;;;;;;;7.23;2.63;;;15.20;62.50;;;;;;5054026;28;20185;-62
2022/05/10 09:37:43;;;;;;;8.50;3.33;;;15.30;62.80;;;;;;5053640;28;20189;-61
2022/05/10 09:40:32;;;;;;;7.13;3.60;;;15.30;63.80;;;;;;5053963;28;20190;-61
2022/05/10 09:43:18;;;;;;;5.23;2.73;;;15.40;62.10;;;;;;5054176;28;20196;-61
2022/05/10 09:46:03;;;;;;;6.90;2.67;;;15.40;63.00;;;;;;5053949;28;20186;-61
2022/05/10 09:48:30;;;;;;;7.00;2.97;;;15.40;63.80;;;;;;5053750;28;20562;-62
2022/05/10 09:50:57;;;;;;;7.27;3.20;;;15.30;62.30;;;;;;5053805;28;20668;-62
2022/05/10 09:53:27;;;;;;;10.93;2.90;;;15.30;62.50;;;;;;5053622;28;20217;-61
2022/05/10 09:56:02;;;;;;;6.07;2.73;;;15.40;62.40;;;;;;5053633;28;20526;-62
2022/05/10 09:58:31;;;;;;;6.83;2.73;;;15.40;62.10;;;;;;5053702;28;20189;-61
2022/05/10 10:01:01;;;;;;;7.00;2.80;;;15.50;62.80;;;;;;5053716;28;20220;-61
2022/05/10 10:03:32;;;;;;;6.30;2.83;;;15.50;61.90;;;;;;5053601;28;20202;-62
2022/05/10 10:06:17;;;;;;;6.60;2.70;;;15.40;61.00;;;;;;5053456;28;20268;-62
2022/05/10 10:08:45;;;;;;;5.40;3.07;;;15.50;62.40;;;;;;5053521;28;20717;-60
2022/05/10 10:11:24;;;;;;;6.13;3.17;;;15.60;61.20;;;;;;5053491;28;20202;-61
2022/05/10 10:13:53;;;;;;;6.93;3.03;;;15.70;61.70;;;;;;5053401;28;20225;-62
2022/05/10 10:16:25;;;;;;;6.37;2.20;;;15.80;60.40;;;;;;5053187;28;20201;-60
2022/05/10 10:18:55;;;;;;;4.93;2.80;;;15.80;61.60;;;;;;5053614;28;20648;-62
2022/05/10 10:21:33;;;;;;;5.27;2.40;;;15.90;61.90;;;;;;5053397;28;20566;-62
2022/05/10 10:24:01;;;;;;;6.50;2.50;;;15.90;59.20;;;;;;5052982;28;20185;-63
2022/05/10 10:26:34;;;;;;;5.63;2.50;;;15.70;59.10;;;;;;5052687;28;20213;-63
2022/05/10 10:29:13;;;;;;;6.73;3.00;;;15.70;60.10;;;;;;5052749;28;20209;-64
2022/05/10 10:31:45;;;;;;;6.80;2.77;;;15.70;60.80;;;;;;5053089;28;20263;-62
2022/05/10 10:34:15;;;;;;;4.27;2.37;;;15.70;60.40;;;;;;5052580;28;20268;-62
2022/05/10 10:36:50;;;;;;;4.73;2.33;;;15.70;60.20;;;;;;5052893;28;20655;-62
2022/05/10 10:39:24;;;;;;;4.57;2.30;;;15.70;59.00;;;;;;5052481;28;20185;-62
2022/05/10 10:41:55;;;;;;;5.20;2.20;;;15.70;59.80;;;;;;5052849;28;20197;-60
2022/05/10 10:44:24;;;;;;;5.17;2.43;;;15.90;60.20;;;;;;5052626;28;20198;-62
2022/05/10 10:47:02;;;;;;;7.17;2.33;;;16.00;59.80;;;;;;5052709;28;20215;-62
2022/05/10 10:49:33;;;;;;;3.53;2.10;;;16.10;58.90;;;;;;5052126;28;20209;-62
2022/05/10 10:52:00;;;;;;;6.27;2.30;;;16.10;59.40;;;;;;5052595;28;20194;-63
2022/05/10 10:54:30;;;;;;;5.47;2.50;;;16.20;59.60;;;;;;5051567;28;20896;-62
2022/05/10 10:57:25;;;;;;;6.23;2.30;;;16.30;59.60;;;;;;5052544;28;20596;-61
2022/05/10 11:00:12;;;;;;;5.03;2.50;;;16.40;59.30;;;;;;5052478;28;20229;-65
2022/05/10 11:03:08;;;;;;;5.70;2.40;;;16.40;59.60;;;;;;5052399;28;20205;-61
2022/05/10 11:06:07;;;;;;;7.17;2.60;;;16.50;59.90;;;;;;5051920;28;20189;-61
2022/05/10 11:09:00;;;;;;;7.80;2.73;;;16.50;58.70;;;;;;5052112;28;20235;-62
2022/05/10 11:11:35;;;;;;;5.07;2.57;;;16.50;59.10;;;;;;5052122;28;20200;-62
2022/05/10 11:14:25;;;;;;;6.60;3.00;;;16.50;59.30;;;;;;5051979;28;20221;-64
2022/05/10 11:16:59;;;;;;;12.00;3.30;;;16.60;59.60;;;;;;5052264;28;20280;-61
2022/05/10 11:19:53;;;;;;;6.97;2.90;;;16.60;60.40;;;;;;5052126;28;20647;-63
2022/05/10 11:22:31;;;;;;;3.90;2.40;;;16.60;59.80;;;;;;5051892;28;20197;-61
2022/05/10 11:25:09;;;;;;;4.97;2.33;;;16.60;59.80;;;;;;5052278;28;20208;-61
2022/05/10 11:27:53;;;;;;;4.60;2.00;;;16.70;59.60;;;;;;5052212;28;20193;-61
2022/05/10 11:30:25;;;;;;;6.27;2.33;;;16.60;58.30;;;;;;5051779;28;20651;-63
2022/05/10 11:33:03;;;;;;;5.83;2.47;;;16.70;59.20;;;;;;5051911;28;20586;-62
2022/05/10 11:35:51;;;;;;;9.73;2.77;;;16.60;57.50;;;;;;5052086;28;20189;-64
2022/05/10 11:38:29;;;;;;;8.90;2.67;;;16.50;57.10;;;;;;5051822;28;20190;-65
2022/05/10 11:41:06;;;;;;;5.80;2.97;;;16.50;57.60;;;;;;5051610;28;20185;-64
2022/05/10 11:43:57;;;;;;;6.87;3.00;;;16.60;58.20;;;;;;5051867;28;20201;-63
2022/05/10 11:46:56;;;;;;;3.33;2.30;;;16.70;58.90;;;;;;5051569;28;20519;-61
2022/05/10 11:49:55;;;;;;;3.87;2.27;;;16.70;58.80;;;;;;5051213;28;20213;-63
2022/05/10 11:52:41;;;;;;;4.03;2.40;;;16.70;59.00;;;;;;5051528;28;20190;-62
2022/05/10 11:55:25;;;;;;;5.67;2.30;;;16.80;59.30;;;;;;5051590;28;20194;-62
2022/05/10 11:57:58;;;;;;;5.13;2.53;;;16.80;59.50;;;;;;5051723;28;20201;-63
2022/05/10 12:00:54;;;;;;;3.93;2.37;;;16.90;59.60;;;;;;5051367;28;20186;-61
2022/05/10 12:03:53;;;;;;;4.33;2.37;;;16.90;59.30;;;;;;5005198;28;20568;-63
2022/05/10 12:06:43;;;;;;;5.13;2.50;;;16.80;59.30;;;;;;5051214;28;20739;-61
2022/05/10 12:09:17;;;;;;;5.33;2.50;;;16.90;59.80;;;;;;5051462;28;20633;-63
2022/05/10 12:11:44;;;;;;;6.47;3.00;;;16.80;58.40;;;;;;5051606;28;20544;-61
2022/05/10 12:24:16;;;;;;;7.00;3.17;;;17.10;59.20;;;;;;5055115;28;20283;-61
2022/05/10 12:26:46;;;;;;;5.70;2.97;;;17.00;59.80;;;;;;5055239;28;20647;-61
2022/05/10 12:29:56;;;;;;;5.23;2.80;;;17.00;59.50;;;;;;5054671;28;20216;-62
2022/05/10 12:32:43;;;;;;;5.80;3.03;;;17.00;59.70;;;;;;4991066;28;20201;-62
2022/05/10 12:35:18;;;;;;;4.10;2.50;;;17.10;60.00;;;;;;5055109;28;20664;-62
2022/05/10 12:37:56;;;;;;;3.83;2.10;;;17.10;59.50;;;;;;5054846;28;20188;-62
2022/05/10 12:40:51;;;;;;;4.77;2.30;;;17.00;58.20;;;;;;5054832;28;20185;-62
2022/05/10 12:43:58;;;;;;;3.83;2.33;;;17.00;58.10;;;;;;5054465;28;20223;-62
2022/05/10 12:46:52;;;;;;;3.87;2.10;;;16.90;57.60;;;;;;5054845;28;20193;-62
2022/05/10 12:49:27;;;;;;;4.87;2.57;;;16.80;57.90;;;;;;5054857;28;20225;-65
2022/05/10 12:52:13;;;;;;;5.43;2.43;;;16.90;58.90;;;;;;5054833;28;20189;-62
2022/05/10 12:54:43;;;;;;;6.20;2.20;;;17.00;58.20;;;;;;5054799;28;20228;-62
2022/05/10 12:57:15;;;;;;;4.07;2.40;;;17.10;55.80;;;;;;5054448;28;20263;-66
2022/05/10 12:59:50;;;;;;;6.20;3.03;;;17.10;56.70;;;;;;5054512;28;20196;-62
2022/05/10 13:02:17;;;;;;;6.37;2.43;;;17.10;56.30;;;;;;5054382;28;20655;-62
2022/05/10 13:04:50;;;;;;;5.27;2.60;;;17.10;56.40;;;;;;5054510;28;20201;-65
2022/05/10 13:07:37;;;;;;;6.37;2.57;;;17.10;57.00;;;;;;5054038;28;20237;-61
2022/05/10 13:10:08;;;;;;;3.63;2.50;;;17.10;57.50;;;;;;5054223;28;20237;-62
2022/05/10 13:12:42;;;;;;;6.03;2.60;;;17.00;57.20;;;;;;5054268;28;20235;-66
2022/05/10 13:15:13;;;;;;;5.03;2.37;;;16.90;57.80;;;;;;5054158;28;20723;-65
2022/05/10 13:17:45;;;;;;;8.30;3.30;;;17.00;57.70;;;;;;5054379;28;20711;-60
2022/05/10 13:20:14;;;;;;;9.00;4.20;;;17.00;57.20;;;;;;5054045;28;20189;-62
2022/05/10 13:22:51;;;;;;;7.90;4.00;;;17.00;55.20;;;;;;5053984;28;20201;-61